sensor_id;sensor_type;location;lat;lon;timestamp;pressure;altitude;pressure_sealevel;temperature;humidity
75146;BME280;63641;46.526;24.612;2024-01-30T00:02:26;99604.03;;;-5.80;67.52
75146;BME280;63641;46.526;24.612;2024-01-30T00:04:52;99602.13;;;-5.78;67.99
75146;BME280;63641;46.526;24.612;2024-01-30T00:07:19;99600.56;;;-5.80;68.13
75146;BME280;63641;46.526;24.612;2024-01-30T00:09:47;99615.31;;;-5.78;68.08
75146;BME280;63641;46.526;24.612;2024-01-30T00:12:16;99607.75;;;-5.83;68.26
75146;BME280;63641;46.526;24.612;2024-01-30T00:14:43;99615.56;;;-5.81;68.08
75146;BME280;63641;46.526;24.612;2024-01-30T00:17:10;99616.50;;;-5.82;68.11
75146;BME280;63641;46.526;24.612;2024-01-30T00:19:37;99604.75;;;-5.89;68.32
75146;BME280;63641;46.526;24.612;2024-01-30T00:22:03;99605.47;;;-5.87;68.18
75146;BME280;63641;46.526;24.612;2024-01-30T00:24:30;99604.75;;;-5.89;68.18
75146;BME280;63641;46.526;24.612;2024-01-30T00:26:57;99607.19;;;-5.97;68.13
75146;BME280;63641;46.526;24.612;2024-01-30T00:29:24;99599.28;;;-6.09;68.54
75146;BME280;63641;46.526;24.612;2024-01-30T00:31:52;99613.06;;;-6.05;68.63
75146;BME280;63641;46.526;24.612;2024-01-30T00:34:19;99616.31;;;-6.01;68.49
75146;BME280;63641;46.526;24.612;2024-01-30T00:36:45;99625.16;;;-6.02;68.46
75146;BME280;63641;46.526;24.612;2024-01-30T00:39:12;99627.06;;;-6.04;68.51
75146;BME280;63641;46.526;24.612;2024-01-30T00:41:42;99622.91;;;-6.07;68.63
75146;BME280;63641;46.526;24.612;2024-01-30T00:44:08;99624.34;;;-6.03;68.60
75146;BME280;63641;46.526;24.612;2024-01-30T00:46:35;99626.84;;;-6.01;68.49
75146;BME280;63641;46.526;24.612;2024-01-30T00:49:02;99616.53;;;-6.04;68.65
75146;BME280;63641;46.526;24.612;2024-01-30T00:51:29;99623.38;;;-6.02;68.70
75146;BME280;63641;46.526;24.612;2024-01-30T00:53:56;99601.31;;;-6.12;68.63
75146;BME280;63641;46.526;24.612;2024-01-30T00:56:22;99610.31;;;-6.03;68.54
75146;BME280;63641;46.526;24.612;2024-01-30T00:58:50;99621.81;;;-6.04;68.52
75146;BME280;63641;46.526;24.612;2024-01-30T01:01:17;99622.63;;;-6.04;68.74
75146;BME280;63641;46.526;24.612;2024-01-30T01:03:44;99619.06;;;-6.03;68.54
75146;BME280;63641;46.526;24.612;2024-01-30T01:06:11;99615.81;;;-6.06;68.70
75146;BME280;63641;46.526;24.612;2024-01-30T01:08:38;99611.16;;;-6.14;68.69
75146;BME280;63641;46.526;24.612;2024-01-30T01:11:05;99616.75;;;-6.08;68.69
75146;BME280;63641;46.526;24.612;2024-01-30T01:13:32;99617.88;;;-6.10;68.64
75146;BME280;63641;46.526;24.612;2024-01-30T01:15:59;99613.06;;;-6.16;68.66
75146;BME280;63641;46.526;24.612;2024-01-30T01:18:25;99611.50;;;-6.19;68.71
75146;BME280;63641;46.526;24.612;2024-01-30T01:20:53;99609.72;;;-6.18;68.67
75146;BME280;63641;46.526;24.612;2024-01-30T01:23:20;99598.81;;;-6.25;68.63
75146;BME280;63641;46.526;24.612;2024-01-30T01:25:47;99611.63;;;-6.20;68.64
75146;BME280;63641;46.526;24.612;2024-01-30T01:28:14;99599.75;;;-6.26;68.60
75146;BME280;63641;46.526;24.612;2024-01-30T01:30:41;99605.75;;;-6.24;68.59
75146;BME280;63641;46.526;24.612;2024-01-30T01:33:08;99605.16;;;-6.27;68.61
75146;BME280;63641;46.526;24.612;2024-01-30T01:35:35;99605.97;;;-6.27;68.68
75146;BME280;63641;46.526;24.612;2024-01-30T01:38:03;99607.91;;;-6.29;68.77
75146;BME280;63641;46.526;24.612;2024-01-30T01:40:29;99608.13;;;-6.32;68.71
75146;BME280;63641;46.526;24.612;2024-01-30T01:42:56;99612.19;;;-6.39;68.52
75146;BME280;63641;46.526;24.612;2024-01-30T01:45:23;99611.38;;;-6.40;68.53
75146;BME280;63641;46.526;24.612;2024-01-30T01:47:51;99611.59;;;-6.43;68.65
75146;BME280;63641;46.526;24.612;2024-01-30T01:50:20;99608.72;;;-6.51;68.55
75146;BME280;63641;46.526;24.612;2024-01-30T01:52:48;99609.31;;;-6.47;68.67
75146;BME280;63641;46.526;24.612;2024-01-30T01:55:16;99608.50;;;-6.48;68.71
75146;BME280;63641;46.526;24.612;2024-01-30T01:57:44;99605.94;;;-6.49;68.83
75146;BME280;63641;46.526;24.612;2024-01-30T02:00:12;99600.91;;;-6.52;68.89
75146;BME280;63641;46.526;24.612;2024-01-30T02:02:39;99597.81;;;-6.58;68.75
75146;BME280;63641;46.526;24.612;2024-01-30T02:05:06;99606.06;;;-6.51;68.69
75146;BME280;63641;46.526;24.612;2024-01-30T02:07:33;99592.53;;;-6.58;68.73
75146;BME280;63641;46.526;24.612;2024-01-30T02:10:00;99599.25;;;-6.53;68.59
75146;BME280;63641;46.526;24.612;2024-01-30T02:12:26;99597.91;;;-6.59;68.66
75146;BME280;63641;46.526;24.612;2024-01-30T02:14:53;99594.44;;;-6.60;68.63
75146;BME280;63641;46.526;24.612;2024-01-30T02:17:21;99596.97;;;-6.58;68.74
75146;BME280;63641;46.526;24.612;2024-01-30T02:19:49;99596.34;;;-6.62;68.48
75146;BME280;63641;46.526;24.612;2024-01-30T02:22:16;99586.19;;;-6.66;68.58
75146;BME280;63641;46.526;24.612;2024-01-30T02:24:44;99587.84;;;-6.65;68.68
75146;BME280;63641;46.526;24.612;2024-01-30T02:27:11;99599.09;;;-6.63;68.59
75146;BME280;63641;46.526;24.612;2024-01-30T02:29:38;99591.44;;;-6.66;68.55
75146;BME280;63641;46.526;24.612;2024-01-30T02:32:05;99588.91;;;-6.68;68.63
75146;BME280;63641;46.526;24.612;2024-01-30T02:34:33;99594.91;;;-6.66;68.62
75146;BME280;63641;46.526;24.612;2024-01-30T02:36:59;99604.72;;;-6.68;68.64
75146;BME280;63641;46.526;24.612;2024-01-30T02:39:26;99599.44;;;-6.68;68.61
75146;BME280;63641;46.526;24.612;2024-01-30T02:41:53;99600.50;;;-6.70;68.60
75146;BME280;63641;46.526;24.612;2024-01-30T02:44:21;99594.97;;;-6.78;68.62
75146;BME280;63641;46.526;24.612;2024-01-30T02:46:47;99607.78;;;-6.74;68.84
75146;BME280;63641;46.526;24.612;2024-01-30T02:49:14;99606.34;;;-6.78;68.72
75146;BME280;63641;46.526;24.612;2024-01-30T02:51:41;99589.59;;;-6.88;68.71
75146;BME280;63641;46.526;24.612;2024-01-30T02:54:08;99601.34;;;-6.81;68.80
75146;BME280;63641;46.526;24.612;2024-01-30T02:56:35;99588.97;;;-6.92;68.81
75146;BME280;63641;46.526;24.612;2024-01-30T02:59:01;99604.19;;;-6.84;68.86
75146;BME280;63641;46.526;24.612;2024-01-30T03:01:28;99606.94;;;-6.86;68.72
75146;BME280;63641;46.526;24.612;2024-01-30T03:03:55;99597.81;;;-6.93;68.79
75146;BME280;63641;46.526;24.612;2024-01-30T03:06:22;99607.28;;;-6.90;68.76
75146;BME280;63641;46.526;24.612;2024-01-30T03:08:49;99609.44;;;-6.95;68.76
75146;BME280;63641;46.526;24.612;2024-01-30T03:11:16;99602.97;;;-6.91;68.79
75146;BME280;63641;46.526;24.612;2024-01-30T03:13:43;99602.38;;;-6.95;68.83
75146;BME280;63641;46.526;24.612;2024-01-30T03:16:10;99609.06;;;-6.91;68.83
75146;BME280;63641;46.526;24.612;2024-01-30T03:18:36;99573.69;;;-7.11;68.75
75146;BME280;63641;46.526;24.612;2024-01-30T03:21:03;99602.25;;;-6.93;68.72
75146;BME280;63641;46.526;24.612;2024-01-30T03:23:30;99617.31;;;-6.95;68.86
75146;BME280;63641;46.526;24.612;2024-01-30T03:25:58;99614.91;;;-6.98;68.77
75146;BME280;63641;46.526;24.612;2024-01-30T03:28:25;99603.66;;;-7.00;68.86
75146;BME280;63641;46.526;24.612;2024-01-30T03:30:52;99601.38;;;-7.05;68.59
75146;BME280;63641;46.526;24.612;2024-01-30T03:33:19;99607.38;;;-7.03;68.66
75146;BME280;63641;46.526;24.612;2024-01-30T03:35:46;99606.50;;;-7.03;68.71
75146;BME280;63641;46.526;24.612;2024-01-30T03:38:12;99600.63;;;-7.07;68.88
75146;BME280;63641;46.526;24.612;2024-01-30T03:40:39;99593.28;;;-7.15;68.97
75146;BME280;63641;46.526;24.612;2024-01-30T03:43:06;99597.50;;;-7.12;68.70
75146;BME280;63641;46.526;24.612;2024-01-30T03:45:32;99605.28;;;-7.11;68.77
75146;BME280;63641;46.526;24.612;2024-01-30T03:47:59;99592.94;;;-7.21;68.60
75146;BME280;63641;46.526;24.612;2024-01-30T03:50:26;99611.63;;;-7.13;68.66
75146;BME280;63641;46.526;24.612;2024-01-30T03:52:54;99580.66;;;-7.34;68.62
75146;BME280;63641;46.526;24.612;2024-01-30T03:55:21;99603.56;;;-7.23;68.99
75146;BME280;63641;46.526;24.612;2024-01-30T03:57:48;99596.72;;;-7.25;68.81
75146;BME280;63641;46.526;24.612;2024-01-30T04:00:15;99584.66;;;-7.28;68.78
75146;BME280;63641;46.526;24.612;2024-01-30T04:02:41;99579.13;;;-7.36;68.87
75146;BME280;63641;46.526;24.612;2024-01-30T04:05:09;99598.41;;;-7.24;68.80
75146;BME280;63641;46.526;24.612;2024-01-30T04:07:36;99605.47;;;-7.25;68.98
75146;BME280;63641;46.526;24.612;2024-01-30T04:10:03;99581.13;;;-7.40;68.91
75146;BME280;63641;46.526;24.612;2024-01-30T04:12:32;99610.81;;;-7.26;68.65
75146;BME280;63641;46.526;24.612;2024-01-30T04:14:59;99599.91;;;-7.33;68.75
75146;BME280;63641;46.526;24.612;2024-01-30T04:17:25;99610.22;;;-7.30;68.81
75146;BME280;63641;46.526;24.612;2024-01-30T04:19:52;99621.69;;;-7.31;68.78
75146;BME280;63641;46.526;24.612;2024-01-30T04:22:19;99613.19;;;-7.35;68.67
75146;BME280;63641;46.526;24.612;2024-01-30T04:24:46;99621.06;;;-7.35;68.84
75146;BME280;63641;46.526;24.612;2024-01-30T04:27:13;99613.63;;;-7.41;68.94
75146;BME280;63641;46.526;24.612;2024-01-30T04:29:39;99624.75;;;-7.37;68.73
75146;BME280;63641;46.526;24.612;2024-01-30T04:32:06;99625.09;;;-7.42;68.79
75146;BME280;63641;46.526;24.612;2024-01-30T04:34:33;99633.09;;;-7.43;68.81
75146;BME280;63641;46.526;24.612;2024-01-30T04:37:00;99630.56;;;-7.45;69.00
75146;BME280;63641;46.526;24.612;2024-01-30T04:39:27;99635.81;;;-7.45;68.74
75146;BME280;63641;46.526;24.612;2024-01-30T04:41:53;99608.63;;;-7.57;69.08
75146;BME280;63641;46.526;24.612;2024-01-30T04:44:20;99627.44;;;-7.50;68.75
75146;BME280;63641;46.526;24.612;2024-01-30T04:46:47;99612.00;;;-7.55;69.01
75146;BME280;63641;46.526;24.612;2024-01-30T04:49:14;99623.84;;;-7.49;68.86
75146;BME280;63641;46.526;24.612;2024-01-30T04:51:41;99631.88;;;-7.50;68.90
75146;BME280;63641;46.526;24.612;2024-01-30T04:54:08;99618.19;;;-7.56;69.00
75146;BME280;63641;46.526;24.612;2024-01-30T04:56:34;99629.13;;;-7.49;68.91
75146;BME280;63641;46.526;24.612;2024-01-30T04:59:02;99626.81;;;-7.54;68.95
75146;BME280;63641;46.526;24.612;2024-01-30T05:01:29;99625.03;;;-7.53;68.86
75146;BME280;63641;46.526;24.612;2024-01-30T05:03:56;99621.03;;;-7.59;68.70
75146;BME280;63641;46.526;24.612;2024-01-30T05:06:24;99630.41;;;-7.55;68.74
75146;BME280;63641;46.526;24.612;2024-01-30T05:08:51;99620.09;;;-7.58;68.91
75146;BME280;63641;46.526;24.612;2024-01-30T05:11:18;99626.19;;;-7.57;68.64
75146;BME280;63641;46.526;24.612;2024-01-30T05:13:45;99619.38;;;-7.60;68.92
75146;BME280;63641;46.526;24.612;2024-01-30T05:16:12;99622.13;;;-7.61;68.83
75146;BME280;63641;46.526;24.612;2024-01-30T05:18:39;99615.63;;;-7.68;68.65
75146;BME280;63641;46.526;24.612;2024-01-30T05:21:07;99625.91;;;-7.65;68.76
75146;BME280;63641;46.526;24.612;2024-01-30T05:23:33;99630.94;;;-7.62;68.63
75146;BME280;63641;46.526;24.612;2024-01-30T05:26:00;99636.09;;;-7.61;68.75
75146;BME280;63641;46.526;24.612;2024-01-30T05:28:29;99626.84;;;-7.66;68.60
75146;BME280;63641;46.526;24.612;2024-01-30T05:30:56;99632.00;;;-7.65;68.70
75146;BME280;63641;46.526;24.612;2024-01-30T05:33:23;99635.69;;;-7.67;68.72
75146;BME280;63641;46.526;24.612;2024-01-30T05:35:50;99637.69;;;-7.71;69.04
75146;BME280;63641;46.526;24.612;2024-01-30T05:38:17;99635.81;;;-7.69;68.76
75146;BME280;63641;46.526;24.612;2024-01-30T05:40:43;99622.25;;;-7.75;69.03
75146;BME280;63641;46.526;24.612;2024-01-30T05:43:10;99630.13;;;-7.75;68.98
75146;BME280;63641;46.526;24.612;2024-01-30T05:45:37;99640.44;;;-7.72;68.88
75146;BME280;63641;46.526;24.612;2024-01-30T05:48:04;99638.13;;;-7.77;68.91
75146;BME280;63641;46.526;24.612;2024-01-30T05:50:31;99638.84;;;-7.75;68.75
75146;BME280;63641;46.526;24.612;2024-01-30T05:52:58;99636.44;;;-7.78;68.79
75146;BME280;63641;46.526;24.612;2024-01-30T05:55:25;99646.00;;;-7.77;68.84
75146;BME280;63641;46.526;24.612;2024-01-30T05:57:51;99643.63;;;-7.80;68.89
75146;BME280;63641;46.526;24.612;2024-01-30T06:00:19;99656.00;;;-7.82;69.05
75146;BME280;63641;46.526;24.612;2024-01-30T06:02:45;99645.50;;;-7.82;68.86
75146;BME280;63641;46.526;24.612;2024-01-30T06:05:12;99648.63;;;-7.77;68.94
75146;BME280;63641;46.526;24.612;2024-01-30T06:07:39;99640.03;;;-7.79;68.87
75146;BME280;63641;46.526;24.612;2024-01-30T06:10:07;99646.00;;;-7.77;68.98
75146;BME280;63641;46.526;24.612;2024-01-30T06:12:35;99641.69;;;-7.78;68.94
75146;BME280;63641;46.526;24.612;2024-01-30T06:15:02;99640.88;;;-7.79;69.06
75146;BME280;63641;46.526;24.612;2024-01-30T06:17:29;99653.59;;;-7.72;68.92
75146;BME280;63641;46.526;24.612;2024-01-30T06:19:56;99657.03;;;-7.72;68.86
75146;BME280;63641;46.526;24.612;2024-01-30T06:22:23;99647.78;;;-7.78;68.93
75146;BME280;63641;46.526;24.612;2024-01-30T06:24:50;99655.59;;;-7.76;69.21
75146;BME280;63641;46.526;24.612;2024-01-30T06:27:17;99664.94;;;-7.72;69.04
75146;BME280;63641;46.526;24.612;2024-01-30T06:29:44;99661.34;;;-7.71;69.15
75146;BME280;63641;46.526;24.612;2024-01-30T06:32:11;99668.06;;;-7.67;69.08
75146;BME280;63641;46.526;24.612;2024-01-30T06:34:37;99663.03;;;-7.70;68.96
75146;BME280;63641;46.526;24.612;2024-01-30T06:37:06;99666.59;;;-7.71;68.96
75146;BME280;63641;46.526;24.612;2024-01-30T06:39:33;99666.19;;;-7.65;69.17
75146;BME280;63641;46.526;24.612;2024-01-30T06:42:00;99670.47;;;-7.64;69.19
75146;BME280;63641;46.526;24.612;2024-01-30T06:44:26;99669.44;;;-7.61;68.84
75146;BME280;63641;46.526;24.612;2024-01-30T06:46:55;99666.19;;;-7.65;69.24
75146;BME280;63641;46.526;24.612;2024-01-30T06:49:22;99665.00;;;-7.61;69.16
75146;BME280;63641;46.526;24.612;2024-01-30T06:51:49;99661.44;;;-7.60;69.14
75146;BME280;63641;46.526;24.612;2024-01-30T06:54:16;99657.13;;;-7.61;69.34
75146;BME280;63641;46.526;24.612;2024-01-30T06:56:42;99664.59;;;-7.55;69.16
75146;BME280;63641;46.526;24.612;2024-01-30T06:59:09;99665.81;;;-7.47;69.23
75146;BME280;63641;46.526;24.612;2024-01-30T07:01:36;99663.19;;;-7.47;69.13
75146;BME280;63641;46.526;24.612;2024-01-30T07:04:03;99674.00;;;-7.39;69.25
75146;BME280;63641;46.526;24.612;2024-01-30T07:06:30;99664.31;;;-7.39;69.23
75146;BME280;63641;46.526;24.612;2024-01-30T07:08:57;99669.47;;;-7.37;68.84
75146;BME280;63641;46.526;24.612;2024-01-30T07:11:23;99677.53;;;-7.27;69.01
75146;BME280;63641;46.526;24.612;2024-01-30T07:13:51;99672.91;;;-7.24;69.20
75146;BME280;63641;46.526;24.612;2024-01-30T07:16:18;99678.78;;;-7.20;69.29
75146;BME280;63641;46.526;24.612;2024-01-30T07:18:45;99676.88;;;-7.18;69.26
75146;BME280;63641;46.526;24.612;2024-01-30T07:21:12;99658.28;;;-7.28;69.18
75146;BME280;63641;46.526;24.612;2024-01-30T07:23:38;99665.28;;;-7.16;69.40
75146;BME280;63641;46.526;24.612;2024-01-30T07:26:05;99672.53;;;-7.07;69.35
75146;BME280;63641;46.526;24.612;2024-01-30T07:28:33;99662.09;;;-7.08;69.22
75146;BME280;63641;46.526;24.612;2024-01-30T07:31:01;99676.28;;;-6.98;69.34
75146;BME280;63641;46.526;24.612;2024-01-30T07:33:28;99679.31;;;-6.91;69.50
75146;BME280;63641;46.526;24.612;2024-01-30T07:35:55;99675.97;;;-6.82;69.46
75146;BME280;63641;46.526;24.612;2024-01-30T07:38:22;99675.88;;;-6.81;69.41
75146;BME280;63641;46.526;24.612;2024-01-30T07:40:49;99671.53;;;-6.82;69.85
75146;BME280;63641;46.526;24.612;2024-01-30T07:43:16;99681.06;;;-6.68;69.54
75146;BME280;63641;46.526;24.612;2024-01-30T07:45:42;99684.78;;;-6.59;69.66
75146;BME280;63641;46.526;24.612;2024-01-30T07:48:09;99674.66;;;-6.52;69.77
75146;BME280;63641;46.526;24.612;2024-01-30T07:50:36;99684.38;;;-6.42;69.85
75146;BME280;63641;46.526;24.612;2024-01-30T07:53:03;99669.19;;;-6.38;69.86
75146;BME280;63641;46.526;24.612;2024-01-30T07:55:30;99676.41;;;-6.29;69.83
75146;BME280;63641;46.526;24.612;2024-01-30T07:57:58;99683.50;;;-6.18;69.97
75146;BME280;63641;46.526;24.612;2024-01-30T08:00:26;99685.28;;;-6.08;70.15
75146;BME280;63641;46.526;24.612;2024-01-30T08:02:53;99687.38;;;-6.00;70.26
75146;BME280;63641;46.526;24.612;2024-01-30T08:05:22;99681.94;;;-5.87;70.28
75146;BME280;63641;46.526;24.612;2024-01-30T08:07:50;99677.28;;;-5.84;70.34
75146;BME280;63641;46.526;24.612;2024-01-30T08:10:17;99684.94;;;-5.69;70.10
75146;BME280;63641;46.526;24.612;2024-01-30T08:12:47;99674.53;;;-5.60;70.33
75146;BME280;63641;46.526;24.612;2024-01-30T08:15:14;99678.59;;;-5.55;70.38
75146;BME280;63641;46.526;24.612;2024-01-30T08:17:40;99673.31;;;-5.44;70.44
75146;BME280;63641;46.526;24.612;2024-01-30T08:20:08;99675.94;;;-5.33;70.26
75146;BME280;63641;46.526;24.612;2024-01-30T08:22:40;99674.25;;;-5.23;70.48
75146;BME280;63641;46.526;24.612;2024-01-30T08:25:07;99678.38;;;-5.09;70.60
75146;BME280;63641;46.526;24.612;2024-01-30T08:27:35;99680.75;;;-4.95;70.35
75146;BME280;63641;46.526;24.612;2024-01-30T08:30:08;99675.31;;;-4.82;70.43
75146;BME280;63641;46.526;24.612;2024-01-30T08:32:36;99672.75;;;-4.72;70.18
75146;BME280;63641;46.526;24.612;2024-01-30T08:35:03;99679.16;;;-4.54;70.37
75146;BME280;63641;46.526;24.612;2024-01-30T08:37:30;99673.56;;;-4.40;70.32
75146;BME280;63641;46.526;24.612;2024-01-30T08:39:57;99672.41;;;-4.26;70.26
75146;BME280;63641;46.526;24.612;2024-01-30T08:42:24;99668.03;;;-4.16;70.37
75146;BME280;63641;46.526;24.612;2024-01-30T08:44:51;99659.78;;;-4.01;70.43
75146;BME280;63641;46.526;24.612;2024-01-30T08:47:19;99678.22;;;-3.80;70.42
75146;BME280;63641;46.526;24.612;2024-01-30T08:49:46;99668.00;;;-3.64;70.01
75146;BME280;63641;46.526;24.612;2024-01-30T08:52:13;99665.84;;;-3.49;70.04
75146;BME280;63641;46.526;24.612;2024-01-30T08:54:40;99662.53;;;-3.32;69.93
75146;BME280;63641;46.526;24.612;2024-01-30T08:57:06;99658.66;;;-3.18;69.70
75146;BME280;63641;46.526;24.612;2024-01-30T08:59:33;99655.94;;;-2.97;69.52
75146;BME280;63641;46.526;24.612;2024-01-30T09:02:00;99654.41;;;-2.80;69.70
75146;BME280;63641;46.526;24.612;2024-01-30T09:04:38;99661.13;;;-2.57;69.45
75146;BME280;63641;46.526;24.612;2024-01-30T09:07:05;99658.59;;;-2.39;68.91
75146;BME280;63641;46.526;24.612;2024-01-30T09:09:37;99664.00;;;-2.21;68.82
75146;BME280;63641;46.526;24.612;2024-01-30T09:12:06;99652.53;;;-2.02;68.72
75146;BME280;63641;46.526;24.612;2024-01-30T09:14:36;99647.44;;;-1.86;68.51
75146;BME280;63641;46.526;24.612;2024-01-30T09:17:03;99654.22;;;-1.64;67.86
75146;BME280;63641;46.526;24.612;2024-01-30T09:19:30;99637.81;;;-1.50;67.84
75146;BME280;63641;46.526;24.612;2024-01-30T09:21:57;99630.16;;;-1.35;67.46
75146;BME280;63641;46.526;24.612;2024-01-30T09:24:26;99649.34;;;-1.13;67.16
75146;BME280;63641;46.526;24.612;2024-01-30T09:26:53;99648.84;;;-0.99;66.71
75146;BME280;63641;46.526;24.612;2024-01-30T09:29:20;99642.25;;;-0.77;66.46
75146;BME280;63641;46.526;24.612;2024-01-30T09:31:47;99626.91;;;-0.65;66.34
75146;BME280;63641;46.526;24.612;2024-01-30T09:34:14;99629.69;;;-0.49;66.08
75146;BME280;63641;46.526;24.612;2024-01-30T09:36:41;99630.34;;;-0.29;66.06
75146;BME280;63641;46.526;24.612;2024-01-30T09:39:07;99620.59;;;-0.20;65.59
75146;BME280;63641;46.526;24.612;2024-01-30T09:44:35;99619.50;;;0.16;65.09
75146;BME280;63641;46.526;24.612;2024-01-30T09:47:03;99602.41;;;0.27;64.56
75146;BME280;63641;46.526;24.612;2024-01-30T09:49:32;99603.16;;;0.45;64.37
75146;BME280;63641;46.526;24.612;2024-01-30T09:52:00;99603.69;;;0.57;63.98
75146;BME280;63641;46.526;24.612;2024-01-30T09:54:31;99606.25;;;0.75;63.59
75146;BME280;63641;46.526;24.612;2024-01-30T09:57:02;99601.78;;;0.92;63.49
75146;BME280;63641;46.526;24.612;2024-01-30T09:59:29;99600.81;;;1.09;62.85
75146;BME280;63641;46.526;24.612;2024-01-30T10:01:56;99601.84;;;1.25;62.50
75146;BME280;63641;46.526;24.612;2024-01-30T10:04:23;99591.84;;;1.35;62.29
75146;BME280;63641;46.526;24.612;2024-01-30T10:06:51;99591.00;;;1.51;62.19
75146;BME280;63641;46.526;24.612;2024-01-30T10:09:17;99588.19;;;1.60;61.74
75146;BME280;63641;46.526;24.612;2024-01-30T10:11:44;99596.50;;;1.74;61.63
75146;BME280;63641;46.526;24.612;2024-01-30T10:14:11;99589.84;;;1.78;61.34
75146;BME280;63641;46.526;24.612;2024-01-30T10:16:37;99590.31;;;1.89;61.14
75146;BME280;63641;46.526;24.612;2024-01-30T10:19:04;99593.09;;;2.04;60.86
75146;BME280;63641;46.526;24.612;2024-01-30T10:21:31;99586.06;;;2.20;60.79
75146;BME280;63641;46.526;24.612;2024-01-30T10:23:58;99578.72;;;2.22;60.34
75146;BME280;63641;46.526;24.612;2024-01-30T10:26:25;99580.66;;;2.36;60.08
75146;BME280;63641;46.526;24.612;2024-01-30T10:28:52;99582.44;;;2.52;59.60
75146;BME280;63641;46.526;24.612;2024-01-30T10:31:19;99571.56;;;2.53;59.25
75146;BME280;63641;46.526;24.612;2024-01-30T10:33:46;99581.75;;;2.58;58.95
75146;BME280;63641;46.526;24.612;2024-01-30T10:36:14;99583.94;;;2.54;58.70
75146;BME280;63641;46.526;24.612;2024-01-30T10:38:47;99575.38;;;2.59;58.53
75146;BME280;63641;46.526;24.612;2024-01-30T10:41:27;99570.28;;;2.72;58.56
75146;BME280;63641;46.526;24.612;2024-01-30T10:44:02;99568.91;;;2.84;58.29
75146;BME280;63641;46.526;24.612;2024-01-30T10:46:31;99561.00;;;2.91;57.79
75146;BME280;63641;46.526;24.612;2024-01-30T10:48:59;99567.47;;;2.97;57.66
75146;BME280;63641;46.526;24.612;2024-01-30T10:51:28;99557.06;;;3.02;57.25
75146;BME280;63641;46.526;24.612;2024-01-30T10:53:58;99555.88;;;3.04;57.05
75146;BME280;63641;46.526;24.612;2024-01-30T10:56:26;99541.34;;;3.07;57.04
75146;BME280;63641;46.526;24.612;2024-01-30T10:58:54;99542.44;;;3.12;56.73
75146;BME280;63641;46.526;24.612;2024-01-30T11:01:22;99535.50;;;3.26;56.10
75146;BME280;63641;46.526;24.612;2024-01-30T11:03:53;99540.72;;;3.43;55.95
75146;BME280;63641;46.526;24.612;2024-01-30T11:06:25;99518.88;;;3.54;55.73
75146;BME280;63641;46.526;24.612;2024-01-30T11:09:04;99518.91;;;3.69;55.07
75146;BME280;63641;46.526;24.612;2024-01-30T11:11:57;99515.75;;;3.80;54.86
75146;BME280;63641;46.526;24.612;2024-01-30T11:14:29;99516.13;;;3.77;54.78
75146;BME280;63641;46.526;24.612;2024-01-30T11:16:59;99514.63;;;3.89;54.36
75146;BME280;63641;46.526;24.612;2024-01-30T11:19:27;99510.78;;;3.92;53.71
75146;BME280;63641;46.526;24.612;2024-01-30T11:21:55;99514.63;;;3.89;53.61
75146;BME280;63641;46.526;24.612;2024-01-30T11:24:24;99508.09;;;3.92;53.34
75146;BME280;63641;46.526;24.612;2024-01-30T11:26:57;99507.38;;;3.98;53.25
75146;BME280;63641;46.526;24.612;2024-01-30T11:29:25;99508.47;;;4.03;53.22
75146;BME280;63641;46.526;24.612;2024-01-30T11:31:57;99506.03;;;4.08;52.91
75146;BME280;63641;46.526;24.612;2024-01-30T11:34:25;99492.84;;;3.92;52.49
75146;BME280;63641;46.526;24.612;2024-01-30T11:36:55;99504.13;;;4.02;52.52
75146;BME280;63641;46.526;24.612;2024-01-30T11:39:26;99497.19;;;4.08;52.42
75146;BME280;63641;46.526;24.612;2024-01-30T11:41:53;99489.97;;;4.08;52.16
75146;BME280;63641;46.526;24.612;2024-01-30T11:44:24;99491.16;;;4.21;52.04
75146;BME280;63641;46.526;24.612;2024-01-30T11:46:51;99493.75;;;4.29;51.54
75146;BME280;63641;46.526;24.612;2024-01-30T11:49:18;99485.81;;;4.21;51.33
75146;BME280;63641;46.526;24.612;2024-01-30T11:51:46;99488.66;;;4.19;51.17
75146;BME280;63641;46.526;24.612;2024-01-30T11:54:18;99480.16;;;4.16;51.51
75146;BME280;63641;46.526;24.612;2024-01-30T11:56:45;99479.44;;;4.22;51.29
75146;BME280;63641;46.526;24.612;2024-01-30T11:59:12;99471.75;;;4.19;51.56
75146;BME280;63641;46.526;24.612;2024-01-30T12:01:38;99477.13;;;4.19;51.17
75146;BME280;63641;46.526;24.612;2024-01-30T12:04:05;99471.13;;;4.17;51.33
75146;BME280;63641;46.526;24.612;2024-01-30T12:06:37;99473.69;;;4.25;51.03
75146;BME280;63641;46.526;24.612;2024-01-30T12:09:05;99472.88;;;4.24;50.88
75146;BME280;63641;46.526;24.612;2024-01-30T12:11:32;99475.72;;;4.23;51.03
75146;BME280;63641;46.526;24.612;2024-01-30T12:13:59;99448.31;;;4.06;50.78
75146;BME280;63641;46.526;24.612;2024-01-30T12:16:26;99463.56;;;4.20;50.82
75146;BME280;63641;46.526;24.612;2024-01-30T12:19:00;99448.66;;;4.18;50.67
75146;BME280;63641;46.526;24.612;2024-01-30T12:21:30;99461.59;;;4.29;50.66
75146;BME280;63641;46.526;24.612;2024-01-30T12:23:57;99461.38;;;4.30;50.18
75146;BME280;63641;46.526;24.612;2024-01-30T12:26:24;99464.06;;;4.30;50.37
75146;BME280;63641;46.526;24.612;2024-01-30T12:28:54;99459.56;;;4.31;50.09
75146;BME280;63641;46.526;24.612;2024-01-30T12:31:32;99460.31;;;4.25;50.11
75146;BME280;63641;46.526;24.612;2024-01-30T12:34:00;99453.66;;;4.21;49.98
75146;BME280;63641;46.526;24.612;2024-01-30T12:36:28;99458.25;;;4.27;49.79
75146;BME280;63641;46.526;24.612;2024-01-30T12:38:56;99451.97;;;4.34;49.80
75146;BME280;63641;46.526;24.612;2024-01-30T12:41:24;99444.75;;;4.35;49.52
75146;BME280;63641;46.526;24.612;2024-01-30T12:43:57;99446.78;;;4.33;49.50
75146;BME280;63641;46.526;24.612;2024-01-30T12:46:28;99442.63;;;4.30;49.46
75146;BME280;63641;46.526;24.612;2024-01-30T12:48:55;99442.81;;;4.29;49.65
75146;BME280;63641;46.526;24.612;2024-01-30T12:51:23;99446.97;;;4.31;49.48
75146;BME280;63641;46.526;24.612;2024-01-30T12:53:50;99442.75;;;4.22;49.46
75146;BME280;63641;46.526;24.612;2024-01-30T12:56:16;99429.47;;;4.14;49.29
75146;BME280;63641;46.526;24.612;2024-01-30T12:58:43;99438.78;;;4.18;49.15